Time;durP1;ratioP1;P1;durP2;ratioP2;P2;SDS_P1;SDS_P2;PMS_P1;PMS_P2;Temp;Humidity;BMP_temperature;BMP_pressure;BME280_temperature;BME280_humidity;BME280_pressure;Samples;Min_cycle;Max_cycle;Signal;HPM_P1;HPM_P2
2021/11/05 00:00:21;;;;;;;16.20;7.78;;;;;;;8.48;63.06;101438.88;5015148;28;114534;-69
2021/11/05 00:02:53;;;;;;;12.80;7.60;;;;;;;8.46;62.74;101431.00;5018189;28;114697;-69
2021/11/05 00:05:21;;;;;;;11.68;7.25;;;;;;;8.44;62.94;101447.75;5018456;28;123989;-69
2021/11/05 00:07:48;;;;;;;12.13;7.00;;;;;;;8.42;63.39;101444.31;5013335;28;123931;-69
2021/11/05 00:10:16;;;;;;;12.25;7.05;;;;;;;8.40;63.23;101441.69;5020285;28;114411;-69
2021/11/05 00:12:45;;;;;;;12.50;7.03;;;;;;;8.38;63.48;101444.38;5019351;28;113909;-69
2021/11/05 00:15:13;;;;;;;11.85;6.82;;;;;;;8.38;63.35;101444.38;5020052;28;124756;-69
2021/11/05 00:17:41;;;;;;;12.13;7.28;;;;;;;8.37;63.05;101441.75;5016788;28;123709;-68
2021/11/05 00:20:09;;;;;;;10.60;7.15;;;;;;;8.36;63.14;101445.31;5018106;27;114816;-69
2021/11/05 00:22:37;;;;;;;10.15;6.28;;;;;;;8.35;63.08;101444.44;5015507;28;114211;-69
2021/11/05 00:25:06;;;;;;;14.50;6.22;;;;;;;8.34;63.40;101447.13;5022454;28;124134;-69
2021/11/05 00:27:36;;;;;;;10.63;6.40;;;;;;;8.32;63.45;101444.50;5020065;28;123705;-69
2021/11/05 00:30:05;;;;;;;10.85;6.78;;;;;;;8.31;63.22;101445.44;5014464;28;113463;-68
2021/11/05 00:32:33;;;;;;;10.95;6.43;;;;;;;8.30;63.08;101448.97;5019262;28;113156;-68
2021/11/05 00:35:00;;;;;;;11.52;6.10;;;;;;;8.29;63.12;101449.88;5019755;28;124185;-69
2021/11/05 00:37:28;;;;;;;12.73;6.35;;;;;;;8.28;63.17;101458.69;5019479;28;123990;-69
2021/11/05 00:39:55;;;;;;;12.45;6.50;;;;;;;8.29;63.36;101462.22;5042370;22;115145;-76
2021/11/05 00:42:22;;;;;;;10.65;6.50;;;;;;;8.31;63.35;101463.06;5021016;28;114676;-76
2021/11/05 00:44:50;;;;;;;10.25;6.60;;;;;;;8.31;63.58;101466.53;5021040;27;125062;-75
2021/11/05 00:47:17;;;;;;;11.40;6.65;;;;;;;8.32;63.09;101470.91;5018630;28;124676;-78
2021/11/05 00:49:45;;;;;;;11.27;6.40;;;;;;;8.32;63.17;101470.91;5027215;28;114360;-77
2021/11/05 00:52:12;;;;;;;9.43;5.80;;;;;;;8.33;63.37;101467.38;5021964;28;113703;-76
2021/11/05 00:54:39;;;;;;;9.70;6.00;;;;;;;8.35;63.13;101470.84;5030325;27;122856;-75
2021/11/05 00:57:07;;;;;;;9.68;6.03;;;;;;;8.35;63.35;101481.41;5019730;28;123310;-76
2021/11/05 00:59:34;;;;;;;11.15;5.90;;;;;;;8.35;63.14;101491.94;5014296;28;114351;-77
2021/11/05 01:02:02;;;;;;;10.63;5.97;;;;;;;8.34;63.24;101489.34;5020192;28;114068;-77
2021/11/05 01:04:29;;;;;;;9.93;5.70;;;;;;;8.32;63.36;101492.00;5032362;27;124717;-75
2021/11/05 01:06:56;;;;;;;8.15;5.35;;;;;;;8.31;63.19;101500.84;5022540;28;123468;-76
2021/11/05 01:09:24;;;;;;;9.88;6.15;;;;;;;8.30;63.00;101492.97;5018075;28;113684;-78
2021/11/05 01:11:51;;;;;;;10.32;5.65;;;;;;;8.27;63.11;101493.94;5018711;28;113940;-78
2021/11/05 01:14:18;;;;;;;11.30;5.78;;;;;;;8.26;63.28;101501.88;5026138;27;122908;-79
2021/11/05 01:16:45;;;;;;;9.32;5.55;;;;;;;8.23;62.97;101502.81;5017131;28;123306;-75
2021/11/05 01:19:12;;;;;;;8.25;5.25;;;;;;;8.21;63.07;101509.88;5026099;27;114289;-75
2021/11/05 01:21:39;;;;;;;8.32;5.32;;;;;;;8.19;63.16;101516.97;5021663;28;113556;-76
2021/11/05 01:24:07;;;;;;;8.65;5.82;;;;;;;8.17;63.23;101514.41;5029621;28;123330;-75
2021/11/05 01:26:34;;;;;;;9.00;5.13;;;;;;;8.17;63.21;101513.50;5018604;28;123724;-76
2021/11/05 01:29:01;;;;;;;9.02;5.20;;;;;;;8.16;63.40;101517.06;5018471;28;115150;-74
2021/11/05 01:31:28;;;;;;;7.95;5.63;;;;;;;8.14;63.19;101524.16;5028294;28;115358;-75
2021/11/05 01:33:55;;;;;;;9.48;5.55;;;;;;;8.13;63.25;101525.03;5025480;28;124753;-75
2021/11/05 01:36:24;;;;;;;8.88;5.47;;;;;;;8.14;63.42;101534.72;5012986;28;123763;-76
2021/11/05 01:38:51;;;;;;;8.52;5.57;;;;;;;8.13;63.05;101538.25;5019629;28;114612;-76
2021/11/05 01:41:18;;;;;;;8.95;5.72;;;;;;;8.13;63.49;101541.75;5016674;28;114226;-78
2021/11/05 01:43:46;;;;;;;8.48;5.15;;;;;;;8.12;63.19;101541.81;5017438;27;122723;-77
2021/11/05 01:46:14;;;;;;;11.60;6.07;;;;;;;8.12;63.13;101536.53;5023776;28;123849;-79
2021/11/05 01:48:41;;;;;;;8.90;5.53;;;;;;;8.10;63.27;101543.56;5017444;28;113751;-76
2021/11/05 01:51:08;;;;;;;7.82;5.50;;;;;;;8.09;63.16;101557.69;5019649;28;114279;-76
2021/11/05 01:53:36;;;;;;;9.10;5.55;;;;;;;8.08;62.88;101561.22;5013637;28;124621;-78
2021/11/05 01:56:03;;;;;;;12.38;5.75;;;;;;;8.06;63.47;101563.03;5016060;28;123646;-75
2021/11/05 01:58:30;;;;;;;8.27;5.20;;;;;;;8.06;63.23;101563.03;5015063;27;114502;-75
2021/11/05 02:00:57;;;;;;;9.02;5.18;;;;;;;8.06;63.34;101570.94;5020145;28;114599;-75
2021/11/05 02:03:24;;;;;;;9.50;5.50;;;;;;;8.05;63.25;101567.44;5019253;28;123767;-76
2021/11/05 02:05:54;;;;;;;9.25;5.35;;;;;;;8.03;63.11;101563.97;5010582;28;124108;-76
2021/11/05 02:08:22;;;;;;;9.30;5.22;;;;;;;8.02;63.06;101571.91;5017221;27;113388;-75
2021/11/05 02:10:50;;;;;;;9.82;5.60;;;;;;;8.01;62.85;101580.75;5016549;28;114114;-75
2021/11/05 02:13:19;;;;;;;10.88;5.50;;;;;;;7.97;63.24;101567.63;5023281;28;124908;-74
2021/11/05 02:15:49;;;;;;;8.57;5.25;;;;;;;7.97;63.10;101566.75;5025734;27;123902;-75
2021/11/05 02:18:16;;;;;;;10.27;5.53;;;;;;;7.94;63.28;101570.31;5036863;28;114791;-75
2021/11/05 02:20:43;;;;;;;10.65;5.43;;;;;;;7.93;63.15;101578.25;5027382;28;115087;-78
2021/11/05 02:23:10;;;;;;;8.63;5.55;;;;;;;7.91;63.14;101580.94;5035098;28;123964;-75
2021/11/05 02:25:38;;;;;;;9.15;5.47;;;;;;;7.91;63.02;101586.22;5018160;28;121497;-75
2021/11/05 02:28:05;;;;;;;9.52;5.05;;;;;;;7.91;63.13;101580.06;5030010;28;114618;-74
2021/11/05 02:30:33;;;;;;;9.43;5.13;;;;;;;7.89;63.02;101582.75;5028378;27;113887;-75
2021/11/05 02:33:00;;;;;;;8.57;5.25;;;;;;;7.87;62.95;101579.25;5022302;28;125091;-76
2021/11/05 02:35:27;;;;;;;10.80;5.35;;;;;;;7.85;63.28;101586.34;5025572;28;124257;-76
2021/11/05 02:37:54;;;;;;;7.68;5.13;;;;;;;7.81;63.22;101589.94;5027313;28;113815;-75
2021/11/05 02:40:21;;;;;;;8.85;5.32;;;;;;;7.78;62.99;101600.59;5018554;28;113137;-75
2021/11/05 02:42:48;;;;;;;10.32;5.47;;;;;;;7.76;63.02;101597.09;5027857;28;122815;-75
2021/11/05 02:45:15;;;;;;;10.57;5.40;;;;;;;7.74;62.81;101601.53;5024408;28;123831;-75
2021/11/05 02:47:44;;;;;;;9.82;5.13;;;;;;;7.70;63.02;101599.84;5024165;28;114413;-75
2021/11/05 02:50:16;;;;;;;9.43;5.60;;;;;;;7.68;63.34;101606.94;5025799;27;113473;-76
2021/11/05 02:52:44;;;;;;;11.57;5.10;;;;;;;7.67;62.91;101603.44;5018543;28;124715;-75
2021/11/05 02:55:13;;;;;;;8.07;5.30;;;;;;;7.66;63.29;101611.38;5022307;28;124154;-75
2021/11/05 02:57:41;;;;;;;9.90;5.38;;;;;;;7.66;63.16;101611.38;5024801;28;114488;-76
2021/11/05 03:00:10;;;;;;;10.23;5.70;;;;;;;7.65;63.30;101613.16;5025311;28;112541;-75
2021/11/05 03:02:37;;;;;;;8.95;5.00;;;;;;;7.67;63.17;101618.41;5018445;28;124072;-75
2021/11/05 03:05:10;;;;;;;10.65;5.05;;;;;;;7.68;63.37;101620.13;5027661;28;124456;-75
2021/11/05 03:07:37;;;;;;;8.85;5.03;;;;;;;7.69;63.42;101632.41;5025023;28;115144;-75
2021/11/05 03:10:05;;;;;;;8.70;5.07;;;;;;;7.68;63.49;101630.66;5018650;28;115374;-75
2021/11/05 03:12:33;;;;;;;9.48;5.13;;;;;;;7.69;63.44;101637.69;5023564;28;124010;-75
2021/11/05 03:15:00;;;;;;;8.57;5.05;;;;;;;7.70;63.15;101636.75;5025509;28;124481;-75
2021/11/05 03:17:27;;;;;;;10.00;4.70;;;;;;;7.71;63.23;101641.16;5022414;27;114899;-74
2021/11/05 03:19:54;;;;;;;7.95;4.90;;;;;;;7.71;63.48;101641.16;5020741;27;112312;-76
2021/11/05 03:22:21;;;;;;;8.38;4.45;;;;;;;7.71;63.55;101642.00;5021739;27;123866;-75
2021/11/05 03:24:48;;;;;;;9.18;4.78;;;;;;;7.72;63.25;101642.88;5022340;27;127117;-77
2021/11/05 03:27:16;;;;;;;8.35;4.70;;;;;;;7.73;63.36;101655.19;5028193;28;114446;-73
2021/11/05 03:29:43;;;;;;;9.65;4.28;;;;;;;7.73;63.22;101660.44;5021429;28;114518;-75
2021/11/05 03:32:10;;;;;;;7.82;4.50;;;;;;;7.71;63.34;101662.25;5020530;28;123708;-75
2021/11/05 03:34:37;;;;;;;9.52;4.20;;;;;;;7.72;63.55;101669.25;5017896;28;124585;-75
2021/11/05 03:37:05;;;;;;;9.70;4.38;;;;;;;7.72;63.55;101670.13;5028566;28;114182;-74
2021/11/05 03:39:33;;;;;;;6.78;4.20;;;;;;;7.74;63.31;101672.72;5023701;28;113963;-75
2021/11/05 03:42:02;;;;;;;6.80;4.10;;;;;;;7.74;63.32;101678.00;5020514;28;124712;-75
2021/11/05 03:44:29;;;;;;;5.90;3.78;;;;;;;7.74;63.33;101678.00;5027389;28;123660;-75
2021/11/05 03:46:56;;;;;;;7.15;4.13;;;;;;;7.75;63.39;101677.09;5023173;27;113274;-75
2021/11/05 03:49:23;;;;;;;7.60;4.07;;;;;;;7.75;63.42;101685.00;5014616;28;113164;-75
2021/11/05 03:51:51;;;;;;;7.32;4.40;;;;;;;7.75;63.42;101685.00;5020830;27;123335;-75
2021/11/05 03:54:18;;;;;;;9.05;4.47;;;;;;;7.77;63.47;101694.63;5017290;28;125298;-74
2021/11/05 03:56:46;;;;;;;6.75;4.50;;;;;;;7.79;63.69;101697.22;5019136;28;115512;-75
2021/11/05 03:59:13;;;;;;;7.75;4.20;;;;;;;7.79;63.71;101699.88;5002754;28;114925;-75
2021/11/05 04:01:41;;;;;;;7.78;4.10;;;;;;;7.77;63.27;101699.91;5020761;28;124146;-75
2021/11/05 04:04:10;;;;;;;7.47;4.10;;;;;;;7.76;63.33;101702.56;5030469;28;123764;-75
2021/11/05 04:06:44;;;;;;;7.00;4.28;;;;;;;7.75;63.31;101711.38;5023660;28;113946;-76
2021/11/05 04:09:15;;;;;;;9.77;4.65;;;;;;;7.73;63.54;101707.91;5016423;28;114269;-74
2021/11/05 04:11:42;;;;;;;8.40;4.07;;;;;;;7.72;63.13;101724.63;5010584;28;123126;-75
2021/11/05 04:14:15;;;;;;;10.75;4.47;;;;;;;7.70;63.20;101716.72;5018069;28;123662;-76
2021/11/05 04:16:48;;;;;;;8.35;4.07;;;;;;;7.69;63.39;101722.06;5028069;28;113472;-75
2021/11/05 04:19:15;;;;;;;10.25;4.65;;;;;;;7.67;63.55;101727.34;5013058;28;113025;-76
2021/11/05 04:21:43;;;;;;;6.07;3.90;;;;;;;7.68;63.53;101728.22;5023731;28;123716;-76
2021/11/05 04:24:14;;;;;;;5.93;3.90;;;;;;;7.66;63.60;101737.91;5020516;28;123383;-75
2021/11/05 04:26:42;;;;;;;7.97;3.88;;;;;;;7.67;63.47;101739.69;5006918;28;112672;-75
2021/11/05 04:29:09;;;;;;;5.63;3.85;;;;;;;7.68;63.65;101730.84;5020008;28;114182;-75
2021/11/05 04:31:36;;;;;;;5.68;3.47;;;;;;;7.69;63.79;101738.72;5024131;28;123805;-74
2021/11/05 04:34:03;;;;;;;7.93;3.90;;;;;;;7.70;63.71;101750.16;5018813;28;123819;-75
2021/11/05 04:36:33;;;;;;;6.88;4.00;;;;;;;7.72;63.63;101743.06;5028641;27;115057;-74
2021/11/05 04:39:00;;;;;;;6.43;4.10;;;;;;;7.73;63.53;101750.09;5022967;28;111885;-74
2021/11/05 04:41:27;;;;;;;9.30;4.05;;;;;;;7.73;63.37;101761.50;5024587;28;123982;-74
2021/11/05 04:43:55;;;;;;;6.97;4.22;;;;;;;7.74;63.76;101762.38;5005934;28;123747;-75
2021/11/05 04:46:22;;;;;;;6.82;4.03;;;;;;;7.78;63.94;101774.63;5026096;28;115714;-76
2021/11/05 04:48:49;;;;;;;8.85;3.85;;;;;;;7.80;64.07;101778.09;5022380;28;115342;-75
2021/11/05 04:51:16;;;;;;;6.38;4.20;;;;;;;7.82;63.88;101776.31;5025450;28;123957;-76
2021/11/05 04:53:43;;;;;;;8.52;4.20;;;;;;;7.84;63.69;101774.50;5024106;27;123932;-75
2021/11/05 04:56:10;;;;;;;6.07;3.75;;;;;;;7.85;64.00;101784.13;5028211;28;114332;-75
2021/11/05 04:58:38;;;;;;;8.13;3.92;;;;;;;7.88;63.84;101781.44;5020377;28;113691;-75
2021/11/05 05:01:05;;;;;;;5.78;3.55;;;;;;;7.88;63.92;101786.72;5020839;27;122973;-76
2021/11/05 05:03:32;;;;;;;5.47;3.63;;;;;;;7.89;63.98;101788.47;5001249;28;123751;-74
2021/11/05 05:05:59;;;;;;;6.20;3.90;;;;;;;7.90;63.65;101791.97;5017074;28;113860;-75
2021/11/05 05:08:26;;;;;;;5.95;3.92;;;;;;;7.90;63.83;101790.19;5018013;28;113729;-76
2021/11/05 05:10:53;;;;;;;7.20;3.95;;;;;;;7.91;63.70;101797.22;5018260;28;124221;-75
2021/11/05 05:13:21;;;;;;;6.32;4.20;;;;;;;7.93;63.68;101799.81;5013763;28;123068;-75
2021/11/05 05:15:49;;;;;;;6.13;3.63;;;;;;;7.92;63.97;101804.22;5022790;28;114548;-74
2021/11/05 05:18:16;;;;;;;5.25;3.72;;;;;;;7.94;63.72;101812.13;5023124;28;113946;-75
2021/11/05 05:20:45;;;;;;;6.60;3.88;;;;;;;7.94;63.93;101815.63;5018687;28;124525;-74
2021/11/05 05:23:12;;;;;;;5.28;3.45;;;;;;;7.95;64.05;101814.75;5023327;28;124210;-76
2021/11/05 05:25:40;;;;;;;7.55;4.10;;;;;;;7.95;63.68;101820.00;5028371;28;114010;-75
2021/11/05 05:28:07;;;;;;;7.82;4.15;;;;;;;7.97;63.66;101822.63;5023361;28;113864;-75
2021/11/05 05:30:35;;;;;;;6.55;3.90;;;;;;;7.97;64.14;101817.34;5015730;28;124733;-74
2021/11/05 05:33:02;;;;;;;6.50;3.75;;;;;;;7.98;63.87;101830.47;5019193;28;123035;-74
2021/11/05 05:35:29;;;;;;;6.00;3.63;;;;;;;7.99;64.04;101826.97;5015683;28;115556;-75
2021/11/05 05:37:56;;;;;;;7.43;3.80;;;;;;;8.02;64.16;101835.72;5023926;28;114867;-76
2021/11/05 05:40:25;;;;;;;6.65;3.88;;;;;;;8.02;64.12;101835.72;5019864;28;124235;-77
2021/11/05 05:42:52;;;;;;;7.13;4.07;;;;;;;8.03;64.07;101842.75;5015875;27;123659;-75
2021/11/05 05:45:21;;;;;;;7.78;4.32;;;;;;;8.03;64.13;101837.47;5030706;28;114409;-75
2021/11/05 05:47:48;;;;;;;7.25;3.90;;;;;;;8.03;63.81;101838.34;5021616;28;114141;-76
2021/11/05 05:50:16;;;;;;;6.10;4.20;;;;;;;8.04;63.83;101844.47;5024042;27;122533;-74
2021/11/05 05:52:44;;;;;;;8.65;4.13;;;;;;;8.03;63.65;101842.75;5019808;28;124158;-74
2021/11/05 05:55:13;;;;;;;9.60;4.55;;;;;;;8.02;63.87;101852.41;5021005;28;114501;-75
2021/11/05 05:57:40;;;;;;;6.20;4.32;;;;;;;8.04;63.93;101855.03;5027312;28;114360;-75
2021/11/05 06:00:11;;;;;;;10.90;5.28;;;;;;;8.04;64.09;101860.31;5020688;28;124661;-74
2021/11/05 06:02:38;;;;;;;7.72;4.50;;;;;;;8.05;64.11;101867.34;5023448;27;123179;-76
2021/11/05 06:05:06;;;;;;;6.90;4.60;;;;;;;8.05;64.13;101877.88;5024436;27;114654;-74
2021/11/05 06:07:33;;;;;;;9.57;4.68;;;;;;;8.04;64.15;101876.13;5020165;28;114615;-75
2021/11/05 06:10:00;;;;;;;7.88;4.38;;;;;;;8.04;63.81;101876.13;5017064;28;123922;-76
2021/11/05 06:12:28;;;;;;;7.88;4.20;;;;;;;8.04;64.41;101874.34;5015757;28;124348;-77
2021/11/05 06:14:55;;;;;;;7.43;4.07;;;;;;;8.05;63.91;101877.88;5030469;27;114368;-75
2021/11/05 06:17:22;;;;;;;7.47;3.88;;;;;;;8.04;63.88;101884.03;5022042;28;113974;-75
2021/11/05 06:19:50;;;;;;;7.47;4.20;;;;;;;8.03;63.84;101887.59;5018428;28;123244;-75
2021/11/05 06:22:18;;;;;;;6.35;3.90;;;;;;;8.03;64.08;101895.50;5029587;27;123528;-75
2021/11/05 06:24:46;;;;;;;8.35;4.03;;;;;;;8.02;63.78;101893.75;5012409;27;114983;-75
2021/11/05 06:27:13;;;;;;;7.10;4.30;;;;;;;8.01;63.96;101902.59;5018399;28;114821;-76
2021/11/05 06:29:40;;;;;;;8.45;4.53;;;;;;;7.99;63.80;101900.84;5017974;28;123898;-76
2021/11/05 06:32:07;;;;;;;8.60;4.72;;;;;;;7.98;63.90;101909.63;5018475;28;123983;-76
2021/11/05 06:34:35;;;;;;;7.65;4.75;;;;;;;7.97;63.60;101913.19;5016902;28;113933;-74
2021/11/05 06:37:02;;;;;;;7.25;4.30;;;;;;;7.97;63.58;101921.09;5022538;27;114131;-75
2021/11/05 06:39:29;;;;;;;8.75;4.53;;;;;;;7.96;63.72;101916.69;5024174;28;124347;-76
2021/11/05 06:41:58;;;;;;;6.80;4.00;;;;;;;7.97;64.01;101923.72;5012760;28;123706;-74
2021/11/05 06:44:25;;;;;;;6.57;4.28;;;;;;;7.98;63.75;101920.19;5004600;28;113596;-74
2021/11/05 06:46:53;;;;;;;6.53;3.88;;;;;;;7.98;64.13;101928.09;5021681;28;113564;-75
2021/11/05 06:49:20;;;;;;;8.02;4.13;;;;;;;7.99;64.21;101927.22;5012128;28;123288;-74
2021/11/05 06:51:48;;;;;;;6.72;4.07;;;;;;;7.99;63.79;101936.91;5016502;27;123268;-76
2021/11/05 06:54:15;;;;;;;9.30;4.43;;;;;;;7.99;63.96;101942.19;5017204;28;113997;-75
2021/11/05 06:56:44;;;;;;;7.10;4.10;;;;;;;7.99;64.30;101948.31;5016768;28;112580;-75
2021/11/05 06:59:11;;;;;;;8.43;4.25;;;;;;;7.99;64.03;101950.94;5009141;28;124402;-75
2021/11/05 07:01:39;;;;;;;8.00;3.95;;;;;;;8.01;63.85;101958.00;5024026;28;124326;-75
2021/11/05 07:04:06;;;;;;;6.75;3.83;;;;;;;8.01;64.08;101953.56;5012577;28;114648;-75
2021/11/05 07:06:33;;;;;;;10.50;4.15;;;;;;;8.04;64.08;101965.81;5004851;28;112865;-74
2021/11/05 07:09:00;;;;;;;8.30;3.90;;;;;;;8.05;63.87;101970.22;5015690;28;123173;-75
2021/11/05 07:11:28;;;;;;;6.10;3.72;;;;;;;8.06;64.22;101969.31;5015900;28;124401;-74
2021/11/05 07:13:55;;;;;;;6.18;3.53;;;;;;;8.08;64.24;101984.25;5024978;27;114214;-77
2021/11/05 07:16:23;;;;;;;7.53;3.75;;;;;;;8.10;64.03;101986.81;5021122;27;114658;-74
2021/11/05 07:18:50;;;;;;;7.63;3.30;;;;;;;8.12;64.20;101980.66;5027076;28;124261;-75
2021/11/05 07:21:17;;;;;;;8.73;4.00;;;;;;;8.14;64.28;101983.28;5028997;28;123962;-75
2021/11/05 07:23:44;;;;;;;5.70;3.38;;;;;;;8.16;64.04;101992.03;5011925;28;113278;-73
2021/11/05 07:26:12;;;;;;;6.43;3.78;;;;;;;8.17;64.20;102004.31;5019827;27;113057;-75
2021/11/05 07:28:41;;;;;;;6.30;3.55;;;;;;;8.19;64.26;102003.41;5021630;28;123941;-79
2021/11/05 07:31:08;;;;;;;6.07;3.50;;;;;;;8.23;64.61;102009.50;5018367;27;123820;-74
2021/11/05 07:33:35;;;;;;;9.68;3.83;;;;;;;8.26;64.18;102013.84;5011258;28;114008;-77
2021/11/05 07:36:02;;;;;;;7.80;3.90;;;;;;;8.29;64.42;102025.25;5023589;28;113162;-74
2021/11/05 07:38:29;;;;;;;6.85;3.85;;;;;;;8.33;64.29;102021.63;5021242;28;124299;-76
2021/11/05 07:40:57;;;;;;;7.85;4.35;;;;;;;8.37;64.27;102028.59;5021791;28;123869;-74
2021/11/05 07:43:24;;;;;;;12.90;4.30;;;;;;;8.41;64.19;102028.56;5025309;28;113607;-74
2021/11/05 07:45:51;;;;;;;8.13;3.95;;;;;;;8.46;64.73;102026.75;5025136;28;114985;-76
2021/11/05 07:48:18;;;;;;;7.95;4.20;;;;;;;8.51;64.52;102030.16;5028271;28;124267;-76
2021/11/05 07:50:45;;;;;;;8.70;4.53;;;;;;;8.56;64.31;102033.63;5046880;22;122742;-72
2021/11/05 07:53:12;;;;;;;9.18;4.70;;;;;;;8.59;64.88;102038.84;5023315;28;114914;-73
2021/11/05 07:55:40;;;;;;;8.82;4.47;;;;;;;8.66;64.76;102044.88;5011004;27;112872;-72
2021/11/05 07:58:07;;;;;;;10.25;4.85;;;;;;;8.72;64.34;102050.03;5032256;27;124151;-72
2021/11/05 08:00:35;;;;;;;9.68;5.15;;;;;;;8.79;64.74;102046.41;5017155;28;123966;-72
2021/11/05 08:03:07;;;;;;;6.57;4.82;;;;;;;8.86;65.02;102047.16;5019496;27;115494;-72
2021/11/05 08:05:35;;;;;;;8.93;5.20;;;;;;;8.91;64.86;102045.28;5021597;27;114687;-72
2021/11/05 08:08:02;;;;;;;9.52;5.13;;;;;;;8.98;65.09;102056.63;5026283;28;124113;-72
2021/11/05 08:10:29;;;;;;;10.32;5.05;;;;;;;9.03;64.85;102055.66;5028244;27;123181;-72
2021/11/05 08:12:56;;;;;;;9.27;5.50;;;;;;;9.11;65.03;102059.00;5029264;28;115510;-72
2021/11/05 08:15:23;;;;;;;8.10;5.68;;;;;;;9.19;65.01;102055.34;5023545;28;113920;-72
2021/11/05 08:17:50;;;;;;;7.53;5.18;;;;;;;9.25;64.97;102063.13;5025751;27;123152;-72
2021/11/05 08:20:18;;;;;;;9.70;6.03;;;;;;;9.32;65.17;102072.69;5013768;28;124683;-72
2021/11/05 08:22:46;;;;;;;10.43;5.35;;;;;;;9.38;65.47;102077.88;5012691;28;114748;-72
2021/11/05 08:25:16;;;;;;;9.52;5.70;;;;;;;9.44;65.53;102075.13;5023286;28;113860;-72
2021/11/05 08:27:45;;;;;;;9.40;5.60;;;;;;;9.49;65.29;102075.91;5029215;27;122677;-72
2021/11/05 08:30:17;;;;;;;7.68;5.30;;;;;;;9.55;65.19;102073.13;5031996;28;124504;-71
2021/11/05 08:32:44;;;;;;;10.77;5.32;;;;;;;9.61;65.08;102084.47;5018229;28;113763;-73
2021/11/05 08:35:13;;;;;;;11.73;6.10;;;;;;;9.67;65.29;102089.63;5031410;28;112982;-73
2021/11/05 08:37:40;;;;;;;11.95;6.05;;;;;;;9.72;65.14;102087.75;5026948;28;123843;-73
2021/11/05 08:40:08;;;;;;;8.65;6.05;;;;;;;9.80;65.37;102095.53;5028488;28;122759;-72
2021/11/05 08:42:36;;;;;;;9.20;5.82;;;;;;;9.86;65.60;102090.97;5037350;28;114024;-73
2021/11/05 08:45:07;;;;;;;8.30;5.93;;;;;;;9.93;65.35;102095.22;5035976;28;113314;-73
2021/11/05 08:47:36;;;;;;;7.78;5.60;;;;;;;10.01;65.37;102104.78;5021234;28;124257;-73
2021/11/05 08:50:08;;;;;;;14.30;6.30;;;;;;;10.09;65.49;102108.09;5018421;28;123380;-73
2021/11/05 08:52:35;;;;;;;10.75;6.75;;;;;;;10.17;65.71;102111.47;5018892;28;116004;-73
2021/11/05 08:55:05;;;;;;;11.43;6.43;;;;;;;10.25;65.78;102109.50;5026199;28;115193;-73
2021/11/05 08:57:34;;;;;;;10.88;6.63;;;;;;;10.33;65.79;102123.47;5022346;28;126252;-73
2021/11/05 09:00:05;;;;;;;14.68;6.45;;;;;;;10.43;65.47;102123.25;5018362;28;123481;-73
2021/11/05 09:02:33;;;;;;;11.32;6.50;;;;;;;10.51;65.54;102118.66;5022169;28;96851;-73
2021/11/05 09:05:01;;;;;;;10.10;6.32;;;;;;;10.59;65.73;102129.91;5029890;28;113248;-73
2021/11/05 09:07:28;;;;;;;10.40;5.90;;;;;;;10.67;65.78;102133.25;5026781;28;122937;-73
2021/11/05 09:09:56;;;;;;;12.07;6.97;;;;;;;10.77;65.74;102130.38;5024896;28;124487;-73
2021/11/05 09:12:23;;;;;;;10.52;6.22;;;;;;;10.86;65.84;102138.09;5040242;27;113912;-73
2021/11/05 09:14:50;;;;;;;8.85;6.38;;;;;;;10.96;66.05;102141.38;5027208;28;113964;-74
2021/11/05 09:17:18;;;;;;;10.13;6.72;;;;;;;11.06;65.79;102146.41;5012646;28;124271;-73
2021/11/05 09:19:45;;;;;;;12.90;6.40;;;;;;;11.18;65.94;102139.03;5012607;28;124812;-73
2021/11/05 09:22:12;;;;;;;10.50;6.57;;;;;;;11.28;66.01;102145.81;5028614;27;113964;-73
2021/11/05 09:24:39;;;;;;;9.85;6.13;;;;;;;11.38;65.96;102146.47;5028124;28;113864;-73
2021/11/05 09:27:06;;;;;;;9.80;6.68;;;;;;;11.47;65.95;102147.06;5030928;28;123556;-73
2021/11/05 09:29:33;;;;;;;10.02;6.35;;;;;;;11.57;66.02;102146.81;5031405;28;123900;-74
2021/11/05 09:32:01;;;;;;;10.25;6.63;;;;;;;11.66;65.78;102146.56;5031112;28;113603;-73
2021/11/05 09:34:31;;;;;;;9.38;6.70;;;;;;;11.75;65.93;102150.72;5030621;28;113622;-74
2021/11/05 09:37:01;;;;;;;11.00;5.88;;;;;;;11.82;65.77;102158.44;5029067;28;124357;-74
2021/11/05 09:39:30;;;;;;;10.10;6.38;;;;;;;11.91;65.64;102156.50;5027857;28;123690;-74
2021/11/05 09:41:59;;;;;;;10.82;6.50;;;;;;;11.98;65.76;102163.34;5029123;28;115221;-74
2021/11/05 09:44:29;;;;;;;12.77;6.90;;;;;;;12.06;65.61;102166.66;5029225;28;114094;-74
2021/11/05 09:47:02;;;;;;;9.20;6.25;;;;;;;12.15;65.68;102171.69;5031084;28;124193;-73
2021/11/05 09:49:32;;;;;;;9.85;6.30;;;;;;;12.22;65.58;102170.59;5026144;28;123597;-74
2021/11/05 09:52:02;;;;;;;8.98;6.60;;;;;;;12.30;65.61;102169.47;5012143;28;113926;-74
2021/11/05 09:54:30;;;;;;;8.50;6.35;;;;;;;12.38;65.54;102178.94;5016082;28;114667;-75
2021/11/05 09:56:59;;;;;;;10.23;6.22;;;;;;;12.45;65.42;102187.56;5031715;27;124836;-74
2021/11/05 09:59:26;;;;;;;7.53;5.78;;;;;;;12.51;65.52;102182.09;5036566;27;123337;-74
2021/11/05 10:01:54;;;;;;;14.40;6.20;;;;;;;12.59;65.50;102192.47;5030579;28;114216;-74
2021/11/05 10:04:22;;;;;;;9.25;5.97;;;;;;;12.65;65.46;102190.47;5028540;28;114242;-74
2021/11/05 10:07:06;;;;;;;8.32;5.50;;;;;;;12.75;65.55;102192.84;5038927;27;123937;-74
2021/11/05 10:10:04;;;;;;;9.02;5.25;;;;;;;12.84;65.62;102203.19;5032771;27;123083;-74
2021/11/05 10:12:32;;;;;;;7.88;5.30;;;;;;;12.95;65.55;102205.50;5023839;28;114921;-74
2021/11/05 10:15:03;;;;;;;8.10;4.93;;;;;;;13.07;65.46;102209.53;5016912;28;112923;-74
2021/11/05 10:17:32;;;;;;;9.23;5.05;;;;;;;13.16;65.53;102209.22;5030764;28;124413;-74
2021/11/05 10:20:06;;;;;;;8.50;4.93;;;;;;;13.25;65.48;102209.75;5029614;28;126870;-75
2021/11/05 10:22:50;;;;;;;8.68;5.38;;;;;;;13.34;65.34;102208.63;5017957;27;113853;-74
2021/11/05 10:25:38;;;;;;;11.70;5.35;;;;;;;13.46;65.53;102217.09;5013009;28;113797;-75
2021/11/05 10:28:12;;;;;;;7.85;4.70;;;;;;;13.58;65.46;102221.97;5030373;28;124265;-74
2021/11/05 10:30:45;;;;;;;7.47;4.20;;;;;;;13.71;65.43;102215.31;5029666;28;123764;-74
2021/11/05 10:33:14;;;;;;;7.25;3.80;;;;;;;13.83;65.34;102212.19;5030129;28;115202;-74
2021/11/05 10:35:45;;;;;;;6.43;4.03;;;;;;;13.93;65.18;102219.84;5026575;28;114715;-74
2021/11/05 10:38:30;;;;;;;5.45;3.53;;;;;;;14.04;65.08;102222.97;5024239;28;124470;-74
2021/11/05 10:41:00;;;;;;;7.15;4.22;;;;;;;14.13;64.98;102227.09;5014485;27;123743;-75
2021/11/05 10:43:34;;;;;;;9.32;4.03;;;;;;;14.22;64.91;102229.38;5023130;28;114422;-74
2021/11/05 10:46:03;;;;;;;6.38;3.90;;;;;;;14.31;64.88;102233.50;5024115;28;114230;-74
2021/11/05 10:48:34;;;;;;;6.00;3.33;;;;;;;14.40;64.88;102233.16;5018346;28;124427;-74
2021/11/05 10:51:04;;;;;;;6.10;3.72;;;;;;;14.49;64.78;102227.47;5020825;27;124428;-75
2021/11/05 10:53:37;;;;;;;5.78;3.10;;;;;;;14.58;64.58;102236.94;5032570;28;114287;-73
2021/11/05 10:56:12;;;;;;;5.25;3.55;;;;;;;14.64;64.46;102231.38;5026584;28;114876;-72
2021/11/05 10:58:42;;;;;;;5.80;3.35;;;;;;;14.72;64.56;102228.38;5025587;28;123991;-72
2021/11/05 11:01:15;;;;;;;7.13;3.25;;;;;;;14.80;64.19;102234.28;5025458;28;123772;-72
2021/11/05 11:03:54;;;;;;;4.78;3.13;;;;;;;14.87;64.53;102233.09;5031915;28;114083;-74
2021/11/05 11:06:25;;;;;;;5.50;3.00;;;;;;;14.93;64.10;102245.31;5028561;28;113929;-74
2021/11/05 11:09:03;;;;;;;7.22;2.80;;;;;;;14.96;63.76;102240.72;5016784;28;124631;-74
2021/11/05 11:11:31;;;;;;;3.83;2.72;;;;;;;14.98;63.81;102244.19;5017160;27;124403;-74
2021/11/05 11:14:02;;;;;;;8.13;2.90;;;;;;;14.98;63.25;102243.34;5017780;28;115190;-72
2021/11/05 11:16:32;;;;;;;7.75;2.70;;;;;;;14.95;63.17;102252.31;5016209;28;113382;-74
2021/11/05 11:19:07;;;;;;;7.13;2.90;;;;;;;14.97;63.32;102247.81;5014634;28;124418;-74
2021/11/05 11:21:50;;;;;;;8.95;2.90;;;;;;;15.01;63.30;102250.34;5030269;28;124450;-74
2021/11/05 11:24:20;;;;;;;4.93;2.90;;;;;;;15.07;63.51;102255.41;5032242;28;115223;-78
2021/11/05 11:26:49;;;;;;;8.40;3.25;;;;;;;15.13;63.37;102264.03;5036881;27;114787;-75